sensor_id;sensor_type;location;lat;lon;timestamp;P1;durP1;ratioP1;P2;durP2;ratioP2
20040;SDS011;10181;48.072;9.884;2022-11-20T00:01:08;7.30;;;7.00;;
20040;SDS011;10181;48.072;9.884;2022-11-20T00:03:38;7.90;;;7.53;;
20040;SDS011;10181;48.072;9.884;2022-11-20T00:06:05;8.17;;;7.77;;
20040;SDS011;10181;48.072;9.884;2022-11-20T00:08:32;8.63;;;8.13;;
20040;SDS011;10181;48.072;9.884;2022-11-20T00:11:02;8.80;;;8.40;;
20040;SDS011;10181;48.072;9.884;2022-11-20T00:13:32;7.67;;;7.27;;
20040;SDS011;10181;48.072;9.884;2022-11-20T00:15:58;7.10;;;6.67;;
20040;SDS011;10181;48.072;9.884;2022-11-20T00:18:26;7.27;;;6.77;;
20040;SDS011;10181;48.072;9.884;2022-11-20T00:20:52;6.47;;;6.17;;
20040;SDS011;10181;48.072;9.884;2022-11-20T00:23:17;7.53;;;7.13;;
20040;SDS011;10181;48.072;9.884;2022-11-20T00:25:43;8.23;;;7.73;;
20040;SDS011;10181;48.072;9.884;2022-11-20T00:28:09;6.63;;;6.33;;
20040;SDS011;10181;48.072;9.884;2022-11-20T00:30:34;7.73;;;7.13;;
20040;SDS011;10181;48.072;9.884;2022-11-20T00:33:00;6.90;;;6.60;;
20040;SDS011;10181;48.072;9.884;2022-11-20T00:35:26;7.50;;;7.13;;
20040;SDS011;10181;48.072;9.884;2022-11-20T00:37:51;8.10;;;7.70;;
20040;SDS011;10181;48.072;9.884;2022-11-20T00:40:17;9.80;;;9.30;;
20040;SDS011;10181;48.072;9.884;2022-11-20T00:42:42;12.60;;;12.00;;
20040;SDS011;10181;48.072;9.884;2022-11-20T00:45:08;13.13;;;12.53;;
20040;SDS011;10181;48.072;9.884;2022-11-20T00:47:34;13.23;;;12.63;;
20040;SDS011;10181;48.072;9.884;2022-11-20T00:49:59;11.77;;;11.27;;
20040;SDS011;10181;48.072;9.884;2022-11-20T00:52:25;11.50;;;11.00;;
20040;SDS011;10181;48.072;9.884;2022-11-20T00:54:50;10.13;;;9.73;;
20040;SDS011;10181;48.072;9.884;2022-11-20T00:57:16;7.70;;;7.40;;
20040;SDS011;10181;48.072;9.884;2022-11-20T00:59:42;7.90;;;7.47;;
20040;SDS011;10181;48.072;9.884;2022-11-20T01:02:07;6.00;;;5.70;;
20040;SDS011;10181;48.072;9.884;2022-11-20T01:04:33;6.10;;;5.80;;
20040;SDS011;10181;48.072;9.884;2022-11-20T01:06:58;5.70;;;5.40;;
20040;SDS011;10181;48.072;9.884;2022-11-20T01:09:24;6.47;;;6.27;;
20040;SDS011;10181;48.072;9.884;2022-11-20T01:11:50;6.93;;;6.63;;
20040;SDS011;10181;48.072;9.884;2022-11-20T01:14:16;6.17;;;5.87;;
20040;SDS011;10181;48.072;9.884;2022-11-20T01:16:45;5.83;;;5.63;;
20040;SDS011;10181;48.072;9.884;2022-11-20T01:19:17;5.53;;;5.30;;
20040;SDS011;10181;48.072;9.884;2022-11-20T01:21:45;5.97;;;5.77;;
20040;SDS011;10181;48.072;9.884;2022-11-20T01:24:14;5.80;;;5.50;;
20040;SDS011;10181;48.072;9.884;2022-11-20T01:26:42;5.97;;;5.67;;
20040;SDS011;10181;48.072;9.884;2022-11-20T01:29:19;6.03;;;5.73;;
20040;SDS011;10181;48.072;9.884;2022-11-20T01:31:46;5.60;;;5.37;;
20040;SDS011;10181;48.072;9.884;2022-11-20T01:34:13;6.30;;;5.80;;
20040;SDS011;10181;48.072;9.884;2022-11-20T01:36:40;5.50;;;5.20;;
20040;SDS011;10181;48.072;9.884;2022-11-20T01:39:11;5.90;;;5.50;;
20040;SDS011;10181;48.072;9.884;2022-11-20T01:41:38;6.57;;;6.17;;
20040;SDS011;10181;48.072;9.884;2022-11-20T01:47:15;7.77;;;7.37;;
20040;SDS011;10181;48.072;9.884;2022-11-20T01:49:48;5.73;;;5.43;;
20040;SDS011;10181;48.072;9.884;2022-11-20T01:52:22;8.47;;;8.07;;
20040;SDS011;10181;48.072;9.884;2022-11-20T01:54:56;10.37;;;9.93;;
20040;SDS011;10181;48.072;9.884;2022-11-20T01:57:27;11.67;;;11.10;;
20040;SDS011;10181;48.072;9.884;2022-11-20T01:59:57;11.23;;;10.83;;
20040;SDS011;10181;48.072;9.884;2022-11-20T02:02:27;12.40;;;11.90;;
20040;SDS011;10181;48.072;9.884;2022-11-20T02:04:53;12.57;;;12.10;;
20040;SDS011;10181;48.072;9.884;2022-11-20T02:07:25;13.07;;;12.37;;
20040;SDS011;10181;48.072;9.884;2022-11-20T02:09:51;13.33;;;12.63;;
20040;SDS011;10181;48.072;9.884;2022-11-20T02:12:17;12.87;;;12.37;;
20040;SDS011;10181;48.072;9.884;2022-11-20T02:15:01;11.53;;;11.03;;
20040;SDS011;10181;48.072;9.884;2022-11-20T02:17:27;12.07;;;11.57;;
20040;SDS011;10181;48.072;9.884;2022-11-20T02:19:53;11.63;;;11.17;;
20040;SDS011;10181;48.072;9.884;2022-11-20T02:22:25;13.30;;;12.70;;
20040;SDS011;10181;48.072;9.884;2022-11-20T02:24:56;11.70;;;11.27;;
20040;SDS011;10181;48.072;9.884;2022-11-20T02:27:24;12.10;;;11.67;;
20040;SDS011;10181;48.072;9.884;2022-11-20T02:29:59;10.73;;;10.27;;
20040;SDS011;10181;48.072;9.884;2022-11-20T02:32:29;11.20;;;10.70;;
20040;SDS011;10181;48.072;9.884;2022-11-20T02:34:57;9.03;;;8.53;;
20040;SDS011;10181;48.072;9.884;2022-11-20T02:37:23;7.93;;;7.63;;
20040;SDS011;10181;48.072;9.884;2022-11-20T02:39:55;7.70;;;7.30;;
20040;SDS011;10181;48.072;9.884;2022-11-20T02:42:21;6.80;;;6.47;;
20040;SDS011;10181;48.072;9.884;2022-11-20T02:44:47;6.20;;;5.90;;
20040;SDS011;10181;48.072;9.884;2022-11-20T02:47:12;5.40;;;5.20;;
20040;SDS011;10181;48.072;9.884;2022-11-20T02:49:38;5.60;;;5.40;;
20040;SDS011;10181;48.072;9.884;2022-11-20T02:52:03;5.97;;;5.57;;
20040;SDS011;10181;48.072;9.884;2022-11-20T02:54:29;7.73;;;7.33;;
20040;SDS011;10181;48.072;9.884;2022-11-20T02:56:55;9.17;;;8.83;;
20040;SDS011;10181;48.072;9.884;2022-11-20T02:59:20;8.80;;;8.43;;
20040;SDS011;10181;48.072;9.884;2022-11-20T03:01:46;10.67;;;9.87;;
20040;SDS011;10181;48.072;9.884;2022-11-20T03:04:11;11.63;;;11.10;;
20040;SDS011;10181;48.072;9.884;2022-11-20T03:06:37;14.77;;;14.20;;
20040;SDS011;10181;48.072;9.884;2022-11-20T03:09:03;13.57;;;13.03;;
20040;SDS011;10181;48.072;9.884;2022-11-20T03:11:28;11.70;;;11.20;;
20040;SDS011;10181;48.072;9.884;2022-11-20T03:13:54;9.33;;;8.90;;
20040;SDS011;10181;48.072;9.884;2022-11-20T03:16:20;12.83;;;12.30;;
20040;SDS011;10181;48.072;9.884;2022-11-20T03:18:47;12.23;;;11.70;;
20040;SDS011;10181;48.072;9.884;2022-11-20T03:21:13;13.13;;;12.57;;
20040;SDS011;10181;48.072;9.884;2022-11-20T03:23:40;15.53;;;14.93;;
20040;SDS011;10181;48.072;9.884;2022-11-20T03:26:09;14.47;;;13.83;;
20040;SDS011;10181;48.072;9.884;2022-11-20T03:28:42;7.57;;;7.27;;
20040;SDS011;10181;48.072;9.884;2022-11-20T03:31:13;5.50;;;5.30;;
20040;SDS011;10181;48.072;9.884;2022-11-20T03:33:40;7.03;;;6.67;;
20040;SDS011;10181;48.072;9.884;2022-11-20T03:36:08;7.83;;;7.50;;
20040;SDS011;10181;48.072;9.884;2022-11-20T03:38:35;7.87;;;7.47;;
20040;SDS011;10181;48.072;9.884;2022-11-20T03:41:06;6.93;;;6.53;;
20040;SDS011;10181;48.072;9.884;2022-11-20T03:43:36;6.00;;;5.67;;
20040;SDS011;10181;48.072;9.884;2022-11-20T03:46:02;5.87;;;5.57;;
20040;SDS011;10181;48.072;9.884;2022-11-20T03:48:29;6.10;;;5.90;;
20040;SDS011;10181;48.072;9.884;2022-11-20T03:51:11;6.37;;;5.90;;
20040;SDS011;10181;48.072;9.884;2022-11-20T03:53:40;8.50;;;8.00;;
20040;SDS011;10181;48.072;9.884;2022-11-20T03:56:07;12.07;;;11.47;;
20040;SDS011;10181;48.072;9.884;2022-11-20T03:58:34;11.33;;;10.77;;
20040;SDS011;10181;48.072;9.884;2022-11-20T04:01:08;12.03;;;11.43;;
20040;SDS011;10181;48.072;9.884;2022-11-20T04:03:40;13.43;;;12.60;;
20040;SDS011;10181;48.072;9.884;2022-11-20T04:08:34;12.23;;;11.73;;
20040;SDS011;10181;48.072;9.884;2022-11-20T04:11:10;13.60;;;12.90;;
20040;SDS011;10181;48.072;9.884;2022-11-20T04:13:37;15.37;;;14.50;;
20040;SDS011;10181;48.072;9.884;2022-11-20T04:16:04;13.00;;;12.30;;
20040;SDS011;10181;48.072;9.884;2022-11-20T04:18:31;15.07;;;14.27;;
20040;SDS011;10181;48.072;9.884;2022-11-20T04:20:58;13.53;;;12.80;;
20040;SDS011;10181;48.072;9.884;2022-11-20T04:23:24;10.40;;;9.83;;
20040;SDS011;10181;48.072;9.884;2022-11-20T04:25:50;11.23;;;10.53;;
20040;SDS011;10181;48.072;9.884;2022-11-20T04:28:16;8.87;;;8.37;;
20040;SDS011;10181;48.072;9.884;2022-11-20T04:30:41;8.93;;;8.33;;
20040;SDS011;10181;48.072;9.884;2022-11-20T04:33:07;9.23;;;8.60;;
20040;SDS011;10181;48.072;9.884;2022-11-20T04:35:36;8.43;;;7.93;;
20040;SDS011;10181;48.072;9.884;2022-11-20T04:38:02;8.37;;;7.87;;
20040;SDS011;10181;48.072;9.884;2022-11-20T04:40:29;9.10;;;8.57;;
20040;SDS011;10181;48.072;9.884;2022-11-20T04:42:55;9.17;;;8.63;;
20040;SDS011;10181;48.072;9.884;2022-11-20T04:45:21;10.40;;;9.80;;
20040;SDS011;10181;48.072;9.884;2022-11-20T04:47:48;10.10;;;9.60;;
20040;SDS011;10181;48.072;9.884;2022-11-20T04:50:14;26.63;;;25.40;;
20040;SDS011;10181;48.072;9.884;2022-11-20T04:52:40;36.60;;;35.00;;
20040;SDS011;10181;48.072;9.884;2022-11-20T04:55:06;44.00;;;42.20;;
20040;SDS011;10181;48.072;9.884;2022-11-20T04:57:31;51.77;;;49.57;;
20040;SDS011;10181;48.072;9.884;2022-11-20T04:59:57;53.53;;;51.23;;
20040;SDS011;10181;48.072;9.884;2022-11-20T05:02:23;64.00;;;61.37;;
20040;SDS011;10181;48.072;9.884;2022-11-20T05:04:48;65.03;;;62.47;;
20040;SDS011;10181;48.072;9.884;2022-11-20T05:07:14;61.47;;;58.97;;
20040;SDS011;10181;48.072;9.884;2022-11-20T05:09:39;59.17;;;56.73;;
20040;SDS011;10181;48.072;9.884;2022-11-20T05:12:06;66.87;;;64.10;;
20040;SDS011;10181;48.072;9.884;2022-11-20T05:14:33;63.77;;;61.17;;
20040;SDS011;10181;48.072;9.884;2022-11-20T05:16:59;61.40;;;58.90;;
20040;SDS011;10181;48.072;9.884;2022-11-20T05:19:25;55.57;;;53.30;;
20040;SDS011;10181;48.072;9.884;2022-11-20T05:21:50;45.33;;;43.43;;
20040;SDS011;10181;48.072;9.884;2022-11-20T05:24:16;41.53;;;39.73;;
20040;SDS011;10181;48.072;9.884;2022-11-20T05:26:42;27.33;;;26.03;;
20040;SDS011;10181;48.072;9.884;2022-11-20T05:29:09;20.47;;;18.97;;
20040;SDS011;10181;48.072;9.884;2022-11-20T05:31:36;35.63;;;32.27;;
20040;SDS011;10181;48.072;9.884;2022-11-20T05:34:02;69.80;;;50.30;;
20040;SDS011;10181;48.072;9.884;2022-11-20T05:36:27;37.83;;;32.03;;
20040;SDS011;10181;48.072;9.884;2022-11-20T05:38:54;14.77;;;13.70;;
20040;SDS011;10181;48.072;9.884;2022-11-20T05:41:20;11.77;;;11.07;;
20040;SDS011;10181;48.072;9.884;2022-11-20T05:43:47;8.60;;;8.20;;
20040;SDS011;10181;48.072;9.884;2022-11-20T05:46:13;9.17;;;8.57;;
20040;SDS011;10181;48.072;9.884;2022-11-20T05:48:41;8.50;;;8.07;;
20040;SDS011;10181;48.072;9.884;2022-11-20T05:51:08;11.87;;;11.17;;
20040;SDS011;10181;48.072;9.884;2022-11-20T05:53:35;9.10;;;8.60;;
20040;SDS011;10181;48.072;9.884;2022-11-20T05:56:03;11.00;;;10.40;;
20040;SDS011;10181;48.072;9.884;2022-11-20T05:58:31;10.77;;;10.17;;
20040;SDS011;10181;48.072;9.884;2022-11-20T06:01:10;9.70;;;9.20;;
20040;SDS011;10181;48.072;9.884;2022-11-20T06:03:41;10.70;;;10.13;;
20040;SDS011;10181;48.072;9.884;2022-11-20T06:06:10;8.77;;;8.30;;
20040;SDS011;10181;48.072;9.884;2022-11-20T06:08:37;8.37;;;7.87;;
20040;SDS011;10181;48.072;9.884;2022-11-20T06:11:07;10.97;;;10.37;;
20040;SDS011;10181;48.072;9.884;2022-11-20T06:13:33;9.40;;;8.77;;
20040;SDS011;10181;48.072;9.884;2022-11-20T06:16:00;10.13;;;9.63;;
20040;SDS011;10181;48.072;9.884;2022-11-20T06:18:27;8.23;;;7.73;;
20040;SDS011;10181;48.072;9.884;2022-11-20T06:21:03;8.20;;;7.80;;
20040;SDS011;10181;48.072;9.884;2022-11-20T06:23:32;11.10;;;10.37;;
20040;SDS011;10181;48.072;9.884;2022-11-20T06:26:02;9.13;;;8.57;;
20040;SDS011;10181;48.072;9.884;2022-11-20T06:28:32;10.60;;;9.83;;
20040;SDS011;10181;48.072;9.884;2022-11-20T06:30:58;12.50;;;11.73;;
20040;SDS011;10181;48.072;9.884;2022-11-20T06:33:24;13.70;;;13.10;;
20040;SDS011;10181;48.072;9.884;2022-11-20T06:35:49;11.23;;;10.47;;
20040;SDS011;10181;48.072;9.884;2022-11-20T06:38:15;8.87;;;8.07;;
20040;SDS011;10181;48.072;9.884;2022-11-20T06:40:41;12.23;;;11.63;;
20040;SDS011;10181;48.072;9.884;2022-11-20T06:43:07;15.60;;;14.77;;
20040;SDS011;10181;48.072;9.884;2022-11-20T06:45:33;15.80;;;15.03;;
20040;SDS011;10181;48.072;9.884;2022-11-20T06:47:59;15.83;;;14.87;;
20040;SDS011;10181;48.072;9.884;2022-11-20T06:50:24;17.53;;;16.60;;
20040;SDS011;10181;48.072;9.884;2022-11-20T06:52:50;18.07;;;17.20;;
20040;SDS011;10181;48.072;9.884;2022-11-20T06:55:16;22.37;;;21.07;;
20040;SDS011;10181;48.072;9.884;2022-11-20T06:57:41;15.83;;;15.03;;
20040;SDS011;10181;48.072;9.884;2022-11-20T07:00:07;17.83;;;17.00;;
20040;SDS011;10181;48.072;9.884;2022-11-20T07:02:33;15.80;;;14.87;;
20040;SDS011;10181;48.072;9.884;2022-11-20T07:04:58;20.23;;;19.10;;
20040;SDS011;10181;48.072;9.884;2022-11-20T07:07:24;14.43;;;13.53;;
20040;SDS011;10181;48.072;9.884;2022-11-20T07:09:50;10.60;;;10.07;;
20040;SDS011;10181;48.072;9.884;2022-11-20T07:12:16;14.40;;;13.77;;
20040;SDS011;10181;48.072;9.884;2022-11-20T07:14:41;16.90;;;16.13;;
20040;SDS011;10181;48.072;9.884;2022-11-20T07:17:07;15.77;;;14.93;;
20040;SDS011;10181;48.072;9.884;2022-11-20T07:19:33;11.70;;;11.13;;
20040;SDS011;10181;48.072;9.884;2022-11-20T07:21:58;11.90;;;11.30;;
20040;SDS011;10181;48.072;9.884;2022-11-20T07:24:24;11.23;;;10.67;;
20040;SDS011;10181;48.072;9.884;2022-11-20T07:26:49;9.93;;;9.43;;
20040;SDS011;10181;48.072;9.884;2022-11-20T07:29:15;15.97;;;15.27;;
20040;SDS011;10181;48.072;9.884;2022-11-20T07:31:41;19.70;;;18.77;;
20040;SDS011;10181;48.072;9.884;2022-11-20T07:34:07;12.37;;;11.87;;
20040;SDS011;10181;48.072;9.884;2022-11-20T07:36:33;12.03;;;11.53;;
20040;SDS011;10181;48.072;9.884;2022-11-20T07:38:59;11.30;;;10.80;;
20040;SDS011;10181;48.072;9.884;2022-11-20T07:41:24;9.90;;;9.40;;
20040;SDS011;10181;48.072;9.884;2022-11-20T07:43:50;17.73;;;15.57;;
20040;SDS011;10181;48.072;9.884;2022-11-20T07:46:15;13.43;;;12.83;;
20040;SDS011;10181;48.072;9.884;2022-11-20T07:48:41;16.73;;;15.90;;
20040;SDS011;10181;48.072;9.884;2022-11-20T07:51:07;9.43;;;8.93;;
20040;SDS011;10181;48.072;9.884;2022-11-20T07:53:32;11.10;;;10.47;;
20040;SDS011;10181;48.072;9.884;2022-11-20T07:56:02;12.33;;;11.73;;
20040;SDS011;10181;48.072;9.884;2022-11-20T07:58:28;9.00;;;8.57;;
20040;SDS011;10181;48.072;9.884;2022-11-20T08:00:54;11.50;;;10.90;;
20040;SDS011;10181;48.072;9.884;2022-11-20T08:03:20;8.33;;;7.93;;
20040;SDS011;10181;48.072;9.884;2022-11-20T08:05:45;12.23;;;11.53;;
20040;SDS011;10181;48.072;9.884;2022-11-20T08:08:11;9.00;;;8.53;;
20040;SDS011;10181;48.072;9.884;2022-11-20T08:10:37;15.53;;;14.93;;
20040;SDS011;10181;48.072;9.884;2022-11-20T08:13:03;9.77;;;9.33;;
20040;SDS011;10181;48.072;9.884;2022-11-20T08:15:48;9.17;;;8.73;;
20040;SDS011;10181;48.072;9.884;2022-11-20T08:18:15;10.37;;;9.93;;
20040;SDS011;10181;48.072;9.884;2022-11-20T08:20:42;9.73;;;9.33;;
20040;SDS011;10181;48.072;9.884;2022-11-20T08:23:08;11.03;;;10.53;;
20040;SDS011;10181;48.072;9.884;2022-11-20T08:25:34;12.33;;;11.80;;
20040;SDS011;10181;48.072;9.884;2022-11-20T08:28:03;11.83;;;11.33;;
20040;SDS011;10181;48.072;9.884;2022-11-20T08:30:30;11.57;;;11.17;;
20040;SDS011;10181;48.072;9.884;2022-11-20T08:33:00;10.37;;;9.97;;
20040;SDS011;10181;48.072;9.884;2022-11-20T08:35:28;11.03;;;10.67;;
20040;SDS011;10181;48.072;9.884;2022-11-20T08:37:57;10.80;;;10.30;;
20040;SDS011;10181;48.072;9.884;2022-11-20T08:40:22;11.57;;;11.03;;
20040;SDS011;10181;48.072;9.884;2022-11-20T08:42:48;10.90;;;10.50;;
20040;SDS011;10181;48.072;9.884;2022-11-20T08:45:15;10.20;;;9.90;;
20040;SDS011;10181;48.072;9.884;2022-11-20T08:47:42;8.67;;;8.37;;
20040;SDS011;10181;48.072;9.884;2022-11-20T08:50:08;11.20;;;10.70;;
20040;SDS011;10181;48.072;9.884;2022-11-20T08:52:35;7.67;;;7.23;;
20040;SDS011;10181;48.072;9.884;2022-11-20T08:55:00;7.93;;;7.63;;
20040;SDS011;10181;48.072;9.884;2022-11-20T08:57:26;6.53;;;6.23;;
20040;SDS011;10181;48.072;9.884;2022-11-20T08:59:52;12.60;;;12.13;;
20040;SDS011;10181;48.072;9.884;2022-11-20T09:02:17;7.77;;;7.37;;
20040;SDS011;10181;48.072;9.884;2022-11-20T09:04:43;7.83;;;7.53;;
20040;SDS011;10181;48.072;9.884;2022-11-20T09:07:08;6.93;;;6.73;;
20040;SDS011;10181;48.072;9.884;2022-11-20T09:09:34;5.97;;;5.77;;
20040;SDS011;10181;48.072;9.884;2022-11-20T09:12:00;6.40;;;6.20;;
20040;SDS011;10181;48.072;9.884;2022-11-20T09:14:25;5.87;;;5.57;;
20040;SDS011;10181;48.072;9.884;2022-11-20T09:16:54;9.40;;;9.07;;
20040;SDS011;10181;48.072;9.884;2022-11-20T09:19:20;10.07;;;9.77;;
20040;SDS011;10181;48.072;9.884;2022-11-20T09:21:46;17.40;;;16.63;;
20040;SDS011;10181;48.072;9.884;2022-11-20T09:24:11;20.80;;;20.03;;
20040;SDS011;10181;48.072;9.884;2022-11-20T09:26:37;38.17;;;36.77;;
20040;SDS011;10181;48.072;9.884;2022-11-20T09:29:03;50.00;;;48.10;;
20040;SDS011;10181;48.072;9.884;2022-11-20T09:31:28;35.80;;;34.47;;
20040;SDS011;10181;48.072;9.884;2022-11-20T09:33:54;48.30;;;46.43;;
20040;SDS011;10181;48.072;9.884;2022-11-20T09:36:19;38.10;;;36.70;;
20040;SDS011;10181;48.072;9.884;2022-11-20T09:38:45;33.50;;;32.27;;
20040;SDS011;10181;48.072;9.884;2022-11-20T09:41:55;15.27;;;14.77;;
20040;SDS011;10181;48.072;9.884;2022-11-20T09:46:53;19.50;;;18.77;;
20040;SDS011;10181;48.072;9.884;2022-11-20T09:49:46;10.00;;;9.70;;
20040;SDS011;10181;48.072;9.884;2022-11-20T09:55:32;8.47;;;8.17;;
20040;SDS011;10181;48.072;9.884;2022-11-20T09:58:00;8.40;;;8.17;;
20040;SDS011;10181;48.072;9.884;2022-11-20T10:00:27;9.13;;;8.83;;
20040;SDS011;10181;48.072;9.884;2022-11-20T10:03:01;8.00;;;7.80;;
20040;SDS011;10181;48.072;9.884;2022-11-20T10:05:48;7.00;;;6.80;;
20040;SDS011;10181;48.072;9.884;2022-11-20T10:10:52;6.73;;;6.47;;
20040;SDS011;10181;48.072;9.884;2022-11-20T10:13:40;6.50;;;6.30;;
20040;SDS011;10181;48.072;9.884;2022-11-20T10:22:15;6.80;;;6.60;;
20040;SDS011;10181;48.072;9.884;2022-11-20T10:25:15;6.07;;;5.97;;
20040;SDS011;10181;48.072;9.884;2022-11-20T10:30:16;7.03;;;6.83;;
20040;SDS011;10181;48.072;9.884;2022-11-20T10:32:52;7.33;;;7.13;;
20040;SDS011;10181;48.072;9.884;2022-11-20T10:35:31;7.47;;;6.90;;
20040;SDS011;10181;48.072;9.884;2022-11-20T10:38:18;5.23;;;5.13;;
20040;SDS011;10181;48.072;9.884;2022-11-20T10:40:54;5.33;;;5.13;;
20040;SDS011;10181;48.072;9.884;2022-11-20T10:43:44;7.40;;;7.20;;
20040;SDS011;10181;48.072;9.884;2022-11-20T10:46:15;5.93;;;5.83;;
20040;SDS011;10181;48.072;9.884;2022-11-20T10:48:44;5.83;;;5.63;;
20040;SDS011;10181;48.072;9.884;2022-11-20T10:56:55;6.93;;;6.67;;
20040;SDS011;10181;48.072;9.884;2022-11-20T11:01:55;4.37;;;4.27;;
20040;SDS011;10181;48.072;9.884;2022-11-20T11:07:01;4.67;;;4.57;;
20040;SDS011;10181;48.072;9.884;2022-11-20T11:09:37;3.67;;;3.57;;
20040;SDS011;10181;48.072;9.884;2022-11-20T11:12:08;3.50;;;3.40;;
20040;SDS011;10181;48.072;9.884;2022-11-20T11:14:41;3.03;;;2.93;;
20040;SDS011;10181;48.072;9.884;2022-11-20T11:17:28;3.90;;;3.80;;
20040;SDS011;10181;48.072;9.884;2022-11-20T11:19:58;2.73;;;2.63;;
20040;SDS011;10181;48.072;9.884;2022-11-20T11:22:44;7.33;;;6.57;;
20040;SDS011;10181;48.072;9.884;2022-11-20T11:25:20;34.67;;;19.03;;
20040;SDS011;10181;48.072;9.884;2022-11-20T11:27:59;173.30;;;62.10;;
20040;SDS011;10181;48.072;9.884;2022-11-20T11:30:45;50.27;;;22.97;;
20040;SDS011;10181;48.072;9.884;2022-11-20T11:35:53;4.50;;;4.20;;
20040;SDS011;10181;48.072;9.884;2022-11-20T11:41:06;3.00;;;2.90;;
20040;SDS011;10181;48.072;9.884;2022-11-20T11:43:37;5.07;;;4.87;;
20040;SDS011;10181;48.072;9.884;2022-11-20T12:02:39;5.10;;;4.90;;
20040;SDS011;10181;48.072;9.884;2022-11-20T12:07:52;3.83;;;3.73;;
20040;SDS011;10181;48.072;9.884;2022-11-20T12:13:51;4.43;;;4.23;;
20040;SDS011;10181;48.072;9.884;2022-11-20T12:15:54;3.50;;;3.40;;
20040;SDS011;10181;48.072;9.884;2022-11-20T12:18:21;3.73;;;3.63;;
20040;SDS011;10181;48.072;9.884;2022-11-20T12:23:49;3.63;;;3.53;;
20040;SDS011;10181;48.072;9.884;2022-11-20T12:26:30;3.83;;;3.73;;
20040;SDS011;10181;48.072;9.884;2022-11-20T12:29:26;2.93;;;2.83;;
20040;SDS011;10181;48.072;9.884;2022-11-20T12:43:21;2.77;;;2.70;;
20040;SDS011;10181;48.072;9.884;2022-11-20T12:57:35;2.40;;;2.30;;
20040;SDS011;10181;48.072;9.884;2022-11-20T13:08:23;3.53;;;3.33;;
20040;SDS011;10181;48.072;9.884;2022-11-20T13:11:01;2.50;;;2.40;;
20040;SDS011;10181;48.072;9.884;2022-11-20T13:13:43;2.23;;;2.23;;
20040;SDS011;10181;48.072;9.884;2022-11-20T13:18:48;2.73;;;2.63;;
20040;SDS011;10181;48.072;9.884;2022-11-20T13:21:15;3.40;;;3.10;;
20040;SDS011;10181;48.072;9.884;2022-11-20T13:23:43;2.57;;;2.47;;
20040;SDS011;10181;48.072;9.884;2022-11-20T13:28:42;3.83;;;3.73;;
20040;SDS011;10181;48.072;9.884;2022-11-20T13:31:09;3.80;;;3.70;;
20040;SDS011;10181;48.072;9.884;2022-11-20T13:33:58;3.97;;;3.87;;
20040;SDS011;10181;48.072;9.884;2022-11-20T13:36:27;5.00;;;4.50;;
20040;SDS011;10181;48.072;9.884;2022-11-20T13:38:54;4.43;;;4.27;;
20040;SDS011;10181;48.072;9.884;2022-11-20T13:41:25;4.03;;;3.93;;
20040;SDS011;10181;48.072;9.884;2022-11-20T13:46:39;5.17;;;5.07;;
20040;SDS011;10181;48.072;9.884;2022-11-20T13:58:23;4.37;;;4.27;;
20040;SDS011;10181;48.072;9.884;2022-11-20T14:01:19;4.63;;;4.43;;
20040;SDS011;10181;48.072;9.884;2022-11-20T14:03:47;4.10;;;4.00;;
20040;SDS011;10181;48.072;9.884;2022-11-20T14:06:15;1.77;;;1.77;;
20040;SDS011;10181;48.072;9.884;2022-11-20T14:08:52;1.40;;;1.40;;
20040;SDS011;10181;48.072;9.884;2022-11-20T14:14:01;1.40;;;1.40;;
20040;SDS011;10181;48.072;9.884;2022-11-20T14:16:44;2.30;;;1.43;;
20040;SDS011;10181;48.072;9.884;2022-11-20T14:21:45;1.20;;;1.17;;
20040;SDS011;10181;48.072;9.884;2022-11-20T14:24:18;1.10;;;1.10;;
20040;SDS011;10181;48.072;9.884;2022-11-20T14:26:45;1.27;;;1.27;;
20040;SDS011;10181;48.072;9.884;2022-11-20T14:29:13;1.10;;;1.10;;
20040;SDS011;10181;48.072;9.884;2022-11-20T14:31:43;1.17;;;1.17;;
20040;SDS011;10181;48.072;9.884;2022-11-20T14:34:26;0.90;;;0.90;;
20040;SDS011;10181;48.072;9.884;2022-11-20T14:37:01;0.80;;;0.80;;
20040;SDS011;10181;48.072;9.884;2022-11-20T14:39:30;1.00;;;1.00;;
20040;SDS011;10181;48.072;9.884;2022-11-20T14:41:56;1.23;;;1.20;;
20040;SDS011;10181;48.072;9.884;2022-11-20T14:44:26;0.93;;;0.90;;
20040;SDS011;10181;48.072;9.884;2022-11-20T14:46:56;1.47;;;1.00;;
20040;SDS011;10181;48.072;9.884;2022-11-20T14:49:23;1.07;;;0.87;;
20040;SDS011;10181;48.072;9.884;2022-11-20T14:51:58;1.47;;;1.33;;
20040;SDS011;10181;48.072;9.884;2022-11-20T14:54:25;0.87;;;0.87;;
20040;SDS011;10181;48.072;9.884;2022-11-20T14:56:55;1.33;;;1.10;;
20040;SDS011;10181;48.072;9.884;2022-11-20T14:59:27;1.57;;;1.57;;
20040;SDS011;10181;48.072;9.884;2022-11-20T15:01:59;2.33;;;2.33;;
20040;SDS011;10181;48.072;9.884;2022-11-20T15:04:27;3.80;;;3.70;;
20040;SDS011;10181;48.072;9.884;2022-11-20T15:06:55;6.73;;;6.57;;
20040;SDS011;10181;48.072;9.884;2022-11-20T15:09:22;8.27;;;8.07;;
20040;SDS011;10181;48.072;9.884;2022-11-20T15:11:58;12.97;;;12.60;;
20040;SDS011;10181;48.072;9.884;2022-11-20T15:14:26;14.30;;;13.90;;
20040;SDS011;10181;48.072;9.884;2022-11-20T15:16:53;12.27;;;11.97;;
20040;SDS011;10181;48.072;9.884;2022-11-20T15:19:23;14.13;;;13.73;;
20040;SDS011;10181;48.072;9.884;2022-11-20T15:21:50;12.37;;;12.03;;
20040;SDS011;10181;48.072;9.884;2022-11-20T15:24:16;12.83;;;12.47;;
20040;SDS011;10181;48.072;9.884;2022-11-20T15:26:42;15.67;;;15.20;;
20040;SDS011;10181;48.072;9.884;2022-11-20T15:29:09;14.10;;;13.70;;
20040;SDS011;10181;48.072;9.884;2022-11-20T15:31:36;13.80;;;13.40;;
20040;SDS011;10181;48.072;9.884;2022-11-20T15:34:08;11.17;;;10.67;;
20040;SDS011;10181;48.072;9.884;2022-11-20T15:36:36;10.00;;;9.80;;
20040;SDS011;10181;48.072;9.884;2022-11-20T15:39:01;8.43;;;8.13;;
20040;SDS011;10181;48.072;9.884;2022-11-20T15:41:27;7.90;;;7.40;;
20040;SDS011;10181;48.072;9.884;2022-11-20T15:43:53;9.53;;;9.23;;
20040;SDS011;10181;48.072;9.884;2022-11-20T15:46:21;8.10;;;7.83;;
20040;SDS011;10181;48.072;9.884;2022-11-20T15:48:52;4.10;;;4.00;;
20040;SDS011;10181;48.072;9.884;2022-11-20T15:53:51;24.13;;;13.17;;
20040;SDS011;10181;48.072;9.884;2022-11-20T15:56:17;31.13;;;18.63;;
20040;SDS011;10181;48.072;9.884;2022-11-20T15:58:42;37.40;;;22.90;;
20040;SDS011;10181;48.072;9.884;2022-11-20T16:01:12;51.67;;;32.00;;
20040;SDS011;10181;48.072;9.884;2022-11-20T16:03:40;72.33;;;39.90;;
20040;SDS011;10181;48.072;9.884;2022-11-20T16:06:06;17.20;;;12.83;;
20040;SDS011;10181;48.072;9.884;2022-11-20T16:08:32;43.27;;;30.27;;
20040;SDS011;10181;48.072;9.884;2022-11-20T16:10:58;6.67;;;6.17;;
20040;SDS011;10181;48.072;9.884;2022-11-20T16:13:23;2.57;;;2.37;;
20040;SDS011;10181;48.072;9.884;2022-11-20T16:16:11;1.57;;;1.57;;
20040;SDS011;10181;48.072;9.884;2022-11-20T16:18:53;1.83;;;1.73;;
20040;SDS011;10181;48.072;9.884;2022-11-20T16:21:18;3.20;;;3.00;;
20040;SDS011;10181;48.072;9.884;2022-11-20T16:23:44;1.70;;;1.70;;
20040;SDS011;10181;48.072;9.884;2022-11-20T16:26:13;2.17;;;2.07;;
20040;SDS011;10181;48.072;9.884;2022-11-20T16:28:41;4.30;;;4.07;;
20040;SDS011;10181;48.072;9.884;2022-11-20T16:31:12;4.13;;;3.93;;
20040;SDS011;10181;48.072;9.884;2022-11-20T16:33:39;3.93;;;3.70;;
20040;SDS011;10181;48.072;9.884;2022-11-20T16:36:09;5.23;;;4.23;;
20040;SDS011;10181;48.072;9.884;2022-11-20T16:38:35;3.00;;;2.50;;
20040;SDS011;10181;48.072;9.884;2022-11-20T16:41:01;1.90;;;1.80;;
20040;SDS011;10181;48.072;9.884;2022-11-20T16:43:28;2.00;;;1.80;;
20040;SDS011;10181;48.072;9.884;2022-11-20T16:45:53;1.60;;;1.50;;